createdAt,value
2022-10-02T00:02:11.337Z,6.00
2022-10-02T00:07:16.559Z,5.37
2022-10-02T00:12:22.026Z,5.37
2022-10-02T00:17:32.750Z,4.87
2022-10-02T00:22:34.990Z,5.10
2022-10-02T00:27:44.334Z,6.30
2022-10-02T00:33:11.215Z,5.03
2022-10-02T00:38:23.077Z,5.67
2022-10-02T00:44:06.589Z,5.50
2022-10-02T00:49:42.931Z,5.57
2022-10-02T00:54:56.328Z,5.20
2022-10-02T01:00:10.502Z,4.97
2022-10-02T01:05:13.634Z,5.50
2022-10-02T01:10:16.441Z,4.73
2022-10-02T01:15:22.242Z,5.73
2022-10-02T01:20:47.627Z,5.60
2022-10-02T01:25:50.408Z,5.60
2022-10-02T01:30:57.899Z,6.30
2022-10-02T01:36:01.079Z,5.20
2022-10-02T01:41:03.432Z,5.50
2022-10-02T01:46:40.032Z,5.27
2022-10-02T01:51:54.193Z,5.23
2022-10-02T01:57:23.807Z,3.93
2022-10-02T02:02:34.427Z,3.37
2022-10-02T02:07:48.437Z,3.10
2022-10-02T02:13:00.417Z,3.20
2022-10-02T02:18:11.748Z,2.00
2022-10-02T02:23:24.668Z,1.90
2022-10-02T02:28:30.460Z,1.50
2022-10-02T02:33:38.609Z,2.53
2022-10-02T02:38:49.122Z,1.80
2022-10-02T02:44:12.610Z,2.10
2022-10-02T02:49:15.134Z,2.10
2022-10-02T02:54:24.312Z,1.97
2022-10-02T02:59:31.417Z,1.73
2022-10-02T03:04:33.702Z,1.67
2022-10-02T03:09:37.916Z,1.43
2022-10-02T03:15:02.620Z,1.40
2022-10-02T03:20:47.959Z,1.53
2022-10-02T03:26:00.499Z,1.70
2022-10-02T03:31:03.660Z,1.73
2022-10-02T03:36:06.579Z,1.50
2022-10-02T03:41:08.925Z,1.90
2022-10-02T03:46:11.561Z,1.60
2022-10-02T03:51:13.897Z,1.80
2022-10-02T03:56:25.482Z,1.90
2022-10-02T04:01:36.932Z,1.60
2022-10-02T04:06:46.502Z,1.47
2022-10-02T04:11:57.309Z,2.10
2022-10-02T04:17:21.149Z,2.07
2022-10-02T04:22:35.285Z,1.97
2022-10-02T04:27:44.656Z,2.30
2022-10-02T04:32:47.655Z,3.10
2022-10-02T04:38:13.749Z,2.67
2022-10-02T04:43:21.919Z,2.63
2022-10-02T04:49:04.310Z,3.17
2022-10-02T04:54:34.686Z,2.67
2022-10-02T05:00:01.978Z,2.50
2022-10-02T05:05:33.540Z,2.57
2022-10-02T05:10:54.286Z,3.77
2022-10-02T05:16:28.526Z,2.60
2022-10-02T05:21:49.453Z,3.27
2022-10-02T05:27:29.093Z,3.03
2022-10-02T05:33:05.035Z,4.30
2022-10-02T05:38:33.661Z,2.70
2022-10-02T05:43:53.532Z,2.60
2022-10-02T05:49:02.041Z,2.83
2022-10-02T05:54:14.503Z,4.73
2022-10-02T05:59:32.546Z,3.07
2022-10-02T06:04:40.560Z,3.07
2022-10-02T06:09:52.407Z,2.80
2022-10-02T06:15:05.238Z,2.73
2022-10-02T06:20:35.170Z,2.90
2022-10-02T06:25:45.023Z,2.27
2022-10-02T06:30:53.131Z,4.23
2022-10-02T06:36:30.142Z,2.93
2022-10-02T06:42:00.156Z,2.93
2022-10-02T06:47:15.754Z,3.23
2022-10-02T06:52:44.536Z,2.50
2022-10-02T06:58:07.455Z,2.70
2022-10-02T07:03:50.755Z,4.40
2022-10-02T07:09:38.431Z,5.23
2022-10-02T07:14:59.366Z,2.60
2022-10-02T07:20:33.079Z,4.27
2022-10-02T07:26:00.483Z,3.20
2022-10-02T07:31:40.969Z,2.37
2022-10-02T07:37:10.684Z,2.20
2022-10-02T07:42:27.407Z,4.37
2022-10-02T07:47:59.459Z,6.60
2022-10-02T07:53:26.425Z,4.70
2022-10-02T07:58:36.991Z,2.63
2022-10-02T08:03:57.117Z,3.07
2022-10-02T08:09:24.583Z,15.80
2022-10-02T08:14:45.705Z,2.90
2022-10-02T08:19:51.570Z,3.63
2022-10-02T08:25:20.883Z,2.80
2022-10-02T08:30:23.487Z,2.60
2022-10-02T08:35:41.431Z,4.17
2022-10-02T08:41:09.812Z,2.37
2022-10-02T08:46:21.919Z,3.13
2022-10-02T08:51:51.897Z,4.70
2022-10-02T08:56:58.580Z,2.40
2022-10-02T09:02:29.488Z,3.00
2022-10-02T09:08:08.424Z,4.67
2022-10-02T09:13:23.399Z,3.53
2022-10-02T09:18:56.620Z,2.93
2022-10-02T09:24:10.575Z,3.00
2022-10-02T09:29:37.799Z,3.60
2022-10-02T09:35:17.314Z,3.87
2022-10-02T09:40:46.835Z,3.37
2022-10-02T09:46:17.209Z,2.80
2022-10-02T09:51:50.601Z,4.37
2022-10-02T09:57:12.216Z,3.43
2022-10-02T10:02:25.825Z,3.23
2022-10-02T10:07:36.948Z,2.30
2022-10-02T10:13:22.213Z,2.90
2022-10-02T10:18:39.412Z,2.27
2022-10-02T10:23:59.330Z,1.97
2022-10-02T10:29:25.655Z,1.67
2022-10-02T10:34:47.256Z,2.10
2022-10-02T10:40:21.227Z,5.00
2022-10-02T10:46:06.437Z,2.07
2022-10-02T10:51:23.897Z,2.20
2022-10-02T10:56:49.274Z,1.60
2022-10-02T11:02:20.953Z,1.63
2022-10-02T11:08:05.903Z,2.40
2022-10-02T11:13:29.069Z,1.93
2022-10-02T11:19:03.015Z,1.73
2022-10-02T11:24:18.447Z,2.50
2022-10-02T11:29:57.138Z,2.93
2022-10-02T11:35:28.539Z,2.10
2022-10-02T11:40:58.100Z,1.43
2022-10-02T11:46:06.531Z,2.27
2022-10-02T11:51:29.443Z,1.50
2022-10-02T11:56:40.927Z,1.50
2022-10-02T12:02:26.122Z,1.20
2022-10-02T12:07:40.750Z,2.17
2022-10-02T12:12:52.243Z,2.10
2022-10-02T12:18:02.676Z,2.47
2022-10-02T12:23:39.885Z,1.97
2022-10-02T12:28:57.000Z,1.50
2022-10-02T12:34:29.251Z,1.67
2022-10-02T12:39:47.245Z,2.67
2022-10-02T12:45:37.955Z,1.43
2022-10-02T12:50:55.264Z,1.33
2022-10-02T12:56:23.512Z,1.47
2022-10-02T13:01:54.288Z,1.47
2022-10-02T13:07:08.389Z,1.80
2022-10-02T13:12:38.184Z,1.70
2022-10-02T13:18:05.739Z,2.23
2022-10-02T13:23:13.943Z,7.07
2022-10-02T13:28:36.951Z,1.40
2022-10-02T13:33:42.164Z,4.30
2022-10-02T13:39:02.655Z,5.03
2022-10-02T13:44:24.493Z,4.77
2022-10-02T13:49:56.861Z,9.27
2022-10-02T13:55:08.258Z,3.90
2022-10-02T14:00:23.903Z,2.17
2022-10-02T14:05:34.651Z,1.10
2022-10-02T14:10:59.540Z,0.73
2022-10-02T14:16:41.669Z,2.10
2022-10-02T14:21:55.813Z,5.43
2022-10-02T14:27:06.564Z,1.10
2022-10-02T14:32:21.367Z,1.70
2022-10-02T14:37:37.078Z,0.90
2022-10-02T14:42:39.331Z,2.47
2022-10-02T14:47:57.607Z,3.03
2022-10-02T14:53:12.482Z,1.63
2022-10-02T14:59:09.905Z,2.10
2022-10-02T15:04:19.182Z,3.13
2022-10-02T15:09:46.374Z,2.13
2022-10-02T15:15:14.277Z,2.40
2022-10-02T15:20:22.633Z,2.27
2022-10-02T15:25:45.136Z,2.60
2022-10-02T15:30:57.217Z,2.33
2022-10-02T15:36:12.267Z,1.30
2022-10-02T15:41:40.646Z,3.53
2022-10-02T15:47:06.355Z,2.97
2022-10-02T15:52:27.312Z,1.80
2022-10-02T15:57:35.182Z,7.87
2022-10-02T16:02:59.991Z,4.03
2022-10-02T16:08:24.173Z,5.20
2022-10-02T16:13:53.192Z,2.43
2022-10-02T16:19:25.204Z,2.53
2022-10-02T16:25:03.904Z,3.30
2022-10-02T16:30:13.761Z,6.17
2022-10-02T16:35:43.530Z,10.57
2022-10-02T16:40:59.500Z,7.77
2022-10-02T16:47:00.653Z,10.07
2022-10-02T16:52:31.402Z,8.10
2022-10-02T16:57:39.583Z,2.17
2022-10-02T17:02:53.015Z,2.30
2022-10-02T17:08:13.943Z,3.57
2022-10-02T17:13:51.854Z,4.40
2022-10-02T17:18:58.533Z,9.97
2022-10-02T17:24:25.640Z,7.50
2022-10-02T17:29:37.434Z,8.53
2022-10-02T17:34:49.610Z,11.63
2022-10-02T17:40:16.731Z,60.67
2022-10-02T17:45:31.282Z,37.83
2022-10-02T17:50:57.623Z,23.17
2022-10-02T17:56:33.424Z,16.63
2022-10-02T18:01:57.277Z,30.40
2022-10-02T18:07:11.459Z,35.17
2022-10-02T18:12:56.110Z,11.67
2022-10-02T18:18:17.391Z,24.53
2022-10-02T18:23:38.512Z,62.50
2022-10-02T18:28:57.923Z,48.27
2022-10-02T18:34:06.931Z,26.87
2022-10-02T18:39:26.221Z,26.83
2022-10-02T18:44:48.453Z,34.13
2022-10-02T18:50:00.531Z,18.30
2022-10-02T18:55:05.840Z,39.03
2022-10-02T19:00:15.520Z,19.00
2022-10-02T19:05:29.816Z,8.10
2022-10-02T19:10:33.183Z,21.70
2022-10-02T19:15:36.681Z,19.53
2022-10-02T19:20:53.173Z,10.03
2022-10-02T19:25:58.604Z,11.40
2022-10-02T19:31:07.345Z,7.60
2022-10-02T19:36:17.036Z,21.63
2022-10-02T19:41:20.772Z,8.07
2022-10-02T19:46:41.120Z,7.30
2022-10-02T19:51:45.476Z,4.23
2022-10-02T19:56:49.356Z,17.37
2022-10-02T20:01:53.917Z,22.30
2022-10-02T20:06:59.124Z,10.67
2022-10-02T20:12:11.788Z,20.13
2022-10-02T20:17:17.742Z,4.40
2022-10-02T20:22:37.663Z,5.43
2022-10-02T20:27:43.086Z,3.10
2022-10-02T20:33:15.477Z,2.60
2022-10-02T20:38:49.624Z,2.53
2022-10-02T20:43:56.532Z,2.87
2022-10-02T20:49:37.480Z,2.23
2022-10-02T20:54:47.355Z,2.10
2022-10-02T21:00:08.793Z,2.37
2022-10-02T21:05:45.174Z,1.67
2022-10-02T21:11:06.242Z,2.00
2022-10-02T21:16:27.646Z,1.97
2022-10-02T21:21:39.072Z,1.93
2022-10-02T21:27:27.724Z,1.90
2022-10-02T21:32:41.865Z,2.00
2022-10-02T21:38:27.854Z,2.00
2022-10-02T21:43:44.322Z,1.67
2022-10-02T21:49:07.219Z,1.50
2022-10-02T21:54:30.301Z,1.60
2022-10-02T21:59:37.860Z,1.50
2022-10-02T22:05:13.894Z,1.73
2022-10-02T22:10:36.935Z,1.47
2022-10-02T22:15:48.486Z,1.80
2022-10-02T22:21:21.204Z,1.43
2022-10-02T22:26:55.253Z,1.30
2022-10-02T22:32:22.570Z,1.33
2022-10-02T22:37:50.115Z,1.50
2022-10-02T22:43:01.466Z,1.97
2022-10-02T22:48:12.308Z,2.47
2022-10-02T22:53:30.517Z,1.40
2022-10-02T22:58:44.435Z,1.30
2022-10-02T23:04:05.549Z,1.50
2022-10-02T23:09:26.883Z,1.93
2022-10-02T23:14:34.888Z,1.53
2022-10-02T23:19:43.948Z,1.60
2022-10-02T23:24:59.034Z,1.60
2022-10-02T23:30:21.861Z,2.00
2022-10-02T23:35:44.295Z,2.20
2022-10-02T23:41:26.708Z,2.40
2022-10-02T23:46:36.335Z,2.03
2022-10-02T23:52:14.530Z,2.13
2022-10-02T23:57:36.666Z,3.00
